sensor_id;sensor_type;location;lat;lon;timestamp;pressure;altitude;pressure_sealevel;temperature;humidity
46291;BME280;32023;44.444;26.006;2024-03-08T00:00:04;100956.56;;;5.85;nan
46291;BME280;32023;44.444;26.006;2024-03-08T00:02:41;100958.06;;;5.88;nan
46291;BME280;32023;44.444;26.006;2024-03-08T00:05:08;100950.47;;;5.90;nan
46291;BME280;32023;44.444;26.006;2024-03-08T00:07:45;100952.78;;;5.93;nan
46291;BME280;32023;44.444;26.006;2024-03-08T00:10:22;100945.63;;;5.92;nan
46291;BME280;32023;44.444;26.006;2024-03-08T00:12:58;100950.69;;;5.88;nan
46291;BME280;32023;44.444;26.006;2024-03-08T00:15:24;100947.31;;;5.86;nan
46291;BME280;32023;44.444;26.006;2024-03-08T00:18:04;100937.44;;;5.78;nan
46291;BME280;32023;44.444;26.006;2024-03-08T00:20:45;100935.97;;;5.76;nan
46291;BME280;32023;44.444;26.006;2024-03-08T00:23:12;100948.19;;;5.73;nan
46291;BME280;32023;44.444;26.006;2024-03-08T00:25:59;100933.28;;;5.69;nan
46291;BME280;32023;44.444;26.006;2024-03-08T00:28:40;100940.41;;;5.64;nan
46291;BME280;32023;44.444;26.006;2024-03-08T00:31:15;100935.19;;;5.62;nan
46291;BME280;32023;44.444;26.006;2024-03-08T00:33:49;100931.81;;;5.54;nan
46291;BME280;32023;44.444;26.006;2024-03-08T00:36:15;100924.69;;;5.46;nan
46291;BME280;32023;44.444;26.006;2024-03-08T00:38:48;100920.50;;;5.44;nan
46291;BME280;32023;44.444;26.006;2024-03-08T00:41:16;100927.44;;;5.46;nan
46291;BME280;32023;44.444;26.006;2024-03-08T00:44:00;100915.06;;;5.44;nan
46291;BME280;32023;44.444;26.006;2024-03-08T00:46:52;100928.91;;;5.42;nan
46291;BME280;32023;44.444;26.006;2024-03-08T00:49:27;100919.88;;;5.35;nan
46291;BME280;32023;44.444;26.006;2024-03-08T00:52:00;100920.09;;;5.33;nan
46291;BME280;32023;44.444;26.006;2024-03-08T00:54:29;100917.97;;;5.29;nan
46291;BME280;32023;44.444;26.006;2024-03-08T00:56:59;100912.94;;;5.26;nan
46291;BME280;32023;44.444;26.006;2024-03-08T00:59:32;100910.66;;;5.23;nan
46291;BME280;32023;44.444;26.006;2024-03-08T01:02:16;100912.34;;;5.24;nan
46291;BME280;32023;44.444;26.006;2024-03-08T01:04:50;100908.53;;;5.25;nan
46291;BME280;32023;44.444;26.006;2024-03-08T01:07:34;100918.84;;;5.23;nan
46291;BME280;32023;44.444;26.006;2024-03-08T01:10:02;100910.22;;;5.26;nan
46291;BME280;32023;44.444;26.006;2024-03-08T01:12:29;100911.25;;;5.25;nan
46291;BME280;32023;44.444;26.006;2024-03-08T01:15:05;100909.59;;;5.24;nan
46291;BME280;32023;44.444;26.006;2024-03-08T01:17:38;100904.75;;;5.26;nan
46291;BME280;32023;44.444;26.006;2024-03-08T01:20:20;100906.22;;;5.22;nan
46291;BME280;32023;44.444;26.006;2024-03-08T01:22:48;100909.63;;;5.17;nan
46291;BME280;32023;44.444;26.006;2024-03-08T01:25:25;100910.03;;;5.21;nan
46291;BME280;32023;44.444;26.006;2024-03-08T01:27:55;100907.06;;;5.29;nan
46291;BME280;32023;44.444;26.006;2024-03-08T01:30:24;100893.66;;;5.21;nan
46291;BME280;32023;44.444;26.006;2024-03-08T01:32:54;100909.59;;;5.24;nan
46291;BME280;32023;44.444;26.006;2024-03-08T01:35:21;100902.25;;;5.31;nan
46291;BME280;32023;44.444;26.006;2024-03-08T01:37:55;100904.97;;;5.31;nan
46291;BME280;32023;44.444;26.006;2024-03-08T01:40:22;100910.44;;;5.31;nan
46291;BME280;32023;44.444;26.006;2024-03-08T01:42:48;100914.22;;;5.30;nan
46291;BME280;32023;44.444;26.006;2024-03-08T01:45:15;100912.53;;;5.29;nan
46291;BME280;32023;44.444;26.006;2024-03-08T01:47:45;100912.94;;;5.26;nan
46291;BME280;32023;44.444;26.006;2024-03-08T01:50:18;100920.53;;;5.24;nan
46291;BME280;32023;44.444;26.006;2024-03-08T01:52:45;100909.59;;;5.24;nan
46291;BME280;32023;44.444;26.006;2024-03-08T01:55:14;100917.38;;;5.27;nan
46291;BME280;32023;44.444;26.006;2024-03-08T01:57:48;100916.75;;;5.31;nan
46291;BME280;32023;44.444;26.006;2024-03-08T02:00:21;100875.59;;;5.07;nan
46291;BME280;32023;44.444;26.006;2024-03-08T02:03:00;100921.56;;;5.29;nan
46291;BME280;32023;44.444;26.006;2024-03-08T02:05:33;100920.31;;;5.19;nan
46291;BME280;32023;44.444;26.006;2024-03-08T02:08:02;100920.97;;;5.21;nan
46291;BME280;32023;44.444;26.006;2024-03-08T02:10:44;100918.84;;;5.16;nan
46291;BME280;32023;44.444;26.006;2024-03-08T02:13:11;100921.16;;;5.19;nan
46291;BME280;32023;44.444;26.006;2024-03-08T02:15:58;100926.41;;;5.14;nan
46291;BME280;32023;44.444;26.006;2024-03-08T02:18:37;100920.09;;;5.14;nan
46291;BME280;32023;44.444;26.006;2024-03-08T02:21:06;100919.91;;;5.15;nan
46291;BME280;32023;44.444;26.006;2024-03-08T02:23:36;100920.94;;;5.14;nan
46291;BME280;32023;44.444;26.006;2024-03-08T02:26:03;100917.19;;;5.09;nan
46291;BME280;32023;44.444;26.006;2024-03-08T02:28:34;100913.19;;;5.11;nan
46291;BME280;32023;44.444;26.006;2024-03-08T02:31:00;100917.59;;;5.12;nan
46291;BME280;32023;44.444;26.006;2024-03-08T02:33:37;100924.72;;;5.07;nan
46291;BME280;32023;44.444;26.006;2024-03-08T02:36:16;100917.59;;;5.06;nan
46291;BME280;32023;44.444;26.006;2024-03-08T02:38:48;100917.81;;;4.98;nan
46291;BME280;32023;44.444;26.006;2024-03-08T02:41:17;100919.06;;;5.02;nan
46291;BME280;32023;44.444;26.006;2024-03-08T02:43:44;100924.13;;;4.98;nan
46291;BME280;32023;44.444;26.006;2024-03-08T02:46:13;100920.72;;;5.03;nan
46291;BME280;32023;44.444;26.006;2024-03-08T02:48:41;100920.34;;;5.06;nan
46291;BME280;32023;44.444;26.006;2024-03-08T02:51:08;100921.59;;;5.10;nan
46291;BME280;32023;44.444;26.006;2024-03-08T02:56:32;100923.47;;;5.03;nan
46291;BME280;32023;44.444;26.006;2024-03-08T02:59:07;100925.56;;;5.01;nan
46291;BME280;32023;44.444;26.006;2024-03-08T03:01:35;100931.03;;;5.01;nan
46291;BME280;32023;44.444;26.006;2024-03-08T03:04:04;100922.00;;;5.00;nan
46291;BME280;32023;44.444;26.006;2024-03-08T03:06:31;100928.72;;;5.04;nan
46291;BME280;32023;44.444;26.006;2024-03-08T03:08:58;100920.94;;;5.08;nan
46291;BME280;32023;44.444;26.006;2024-03-08T03:11:25;100926.00;;;4.98;nan
46291;BME280;32023;44.444;26.006;2024-03-08T03:13:51;100929.56;;;4.98;nan
46291;BME280;32023;44.444;26.006;2024-03-08T03:16:19;100932.69;;;4.95;nan
46291;BME280;32023;44.444;26.006;2024-03-08T03:18:46;100933.34;;;4.97;nan
46291;BME280;32023;44.444;26.006;2024-03-08T03:21:15;100935.84;;;4.99;nan
46291;BME280;32023;44.444;26.006;2024-03-08T03:23:50;100939.63;;;4.91;nan
46291;BME280;32023;44.444;26.006;2024-03-08T03:26:17;100932.50;;;4.97;nan
46291;BME280;32023;44.444;26.006;2024-03-08T03:28:44;100927.66;;;4.99;nan
46291;BME280;32023;44.444;26.006;2024-03-08T03:31:13;100937.75;;;4.98;nan
46291;BME280;32023;44.444;26.006;2024-03-08T03:33:52;100931.22;;;4.99;nan
46291;BME280;32023;44.444;26.006;2024-03-08T03:36:19;100922.19;;;4.99;nan
46291;BME280;32023;44.444;26.006;2024-03-08T03:38:46;100924.94;;;4.99;nan
46291;BME280;32023;44.444;26.006;2024-03-08T03:41:12;100923.03;;;4.99;nan
46291;BME280;32023;44.444;26.006;2024-03-08T03:43:45;100930.19;;;5.00;nan
46291;BME280;32023;44.444;26.006;2024-03-08T03:46:17;100931.03;;;5.01;nan
46291;BME280;32023;44.444;26.006;2024-03-08T03:48:48;100929.78;;;4.97;nan
46291;BME280;32023;44.444;26.006;2024-03-08T03:51:17;100927.25;;;4.89;nan
46291;BME280;32023;44.444;26.006;2024-03-08T03:53:47;100939.41;;;4.93;nan
46291;BME280;32023;44.444;26.006;2024-03-08T03:56:17;100934.38;;;4.96;nan
46291;BME280;32023;44.444;26.006;2024-03-08T03:58:53;100939.84;;;5.03;nan
46291;BME280;32023;44.444;26.006;2024-03-08T04:01:23;100934.38;;;5.03;nan
46291;BME280;32023;44.444;26.006;2024-03-08T04:03:55;100934.19;;;4.98;nan
46291;BME280;32023;44.444;26.006;2024-03-08T04:06:22;100946.56;;;4.94;nan
46291;BME280;32023;44.444;26.006;2024-03-08T04:08:51;100941.09;;;4.94;nan
46291;BME280;32023;44.444;26.006;2024-03-08T04:11:20;100932.06;;;4.93;nan
46291;BME280;32023;44.444;26.006;2024-03-08T04:13:49;100943.84;;;4.94;nan
46291;BME280;32023;44.444;26.006;2024-03-08T04:16:20;100945.28;;;4.96;nan
46291;BME280;32023;44.444;26.006;2024-03-08T04:18:54;100933.13;;;4.85;nan
46291;BME280;32023;44.444;26.006;2024-03-08T04:21:29;100933.53;;;4.82;nan
46291;BME280;32023;44.444;26.006;2024-03-08T04:24:01;100942.34;;;4.84;nan
46291;BME280;32023;44.444;26.006;2024-03-08T04:26:28;100935.84;;;4.85;nan
46291;BME280;32023;44.444;26.006;2024-03-08T04:28:55;100937.94;;;4.83;nan
46291;BME280;32023;44.444;26.006;2024-03-08T04:31:22;100937.72;;;4.78;nan
46291;BME280;32023;44.444;26.006;2024-03-08T04:33:48;100941.69;;;4.76;nan
46291;BME280;32023;44.444;26.006;2024-03-08T04:36:17;100937.72;;;4.78;nan
46291;BME280;32023;44.444;26.006;2024-03-08T04:38:55;100936.25;;;4.69;nan
46291;BME280;32023;44.444;26.006;2024-03-08T04:41:22;100938.53;;;4.66;nan
46291;BME280;32023;44.444;26.006;2024-03-08T04:43:52;100945.03;;;4.58;nan
46291;BME280;32023;44.444;26.006;2024-03-08T04:46:18;100945.69;;;4.60;nan
46291;BME280;32023;44.444;26.006;2024-03-08T04:48:47;100938.97;;;4.56;nan
46291;BME280;32023;44.444;26.006;2024-03-08T04:51:19;100951.34;;;4.59;nan
46291;BME280;32023;44.444;26.006;2024-03-08T04:53:48;100957.22;;;4.62;nan
46291;BME280;32023;44.444;26.006;2024-03-08T04:56:14;100949.03;;;4.62;nan
46291;BME280;32023;44.444;26.006;2024-03-08T04:58:43;100947.56;;;4.66;nan
46291;BME280;32023;44.444;26.006;2024-03-08T05:01:15;100960.78;;;4.69;nan
46291;BME280;32023;44.444;26.006;2024-03-08T05:03:48;100959.94;;;4.69;nan
46291;BME280;32023;44.444;26.006;2024-03-08T05:06:17;100958.72;;;4.71;nan
46291;BME280;32023;44.444;26.006;2024-03-08T05:08:46;100964.19;;;4.78;nan
46291;BME280;32023;44.444;26.006;2024-03-08T05:11:13;100969.63;;;4.78;nan
46291;BME280;32023;44.444;26.006;2024-03-08T05:13:47;100965.88;;;4.79;nan
46291;BME280;32023;44.444;26.006;2024-03-08T05:16:24;100972.78;;;4.81;nan
46291;BME280;32023;44.444;26.006;2024-03-08T05:19:20;100970.91;;;4.82;nan
46291;BME280;32023;44.444;26.006;2024-03-08T05:22:07;100978.47;;;4.87;nan
46291;BME280;32023;44.444;26.006;2024-03-08T05:24:47;100976.13;;;4.83;nan
46291;BME280;32023;44.444;26.006;2024-03-08T05:27:19;100971.56;;;4.91;nan
46291;BME280;32023;44.444;26.006;2024-03-08T05:29:52;100977.63;;;4.93;nan
46291;BME280;32023;44.444;26.006;2024-03-08T05:32:21;100982.47;;;4.91;nan
46291;BME280;32023;44.444;26.006;2024-03-08T05:35:00;100986.47;;;4.95;nan
46291;BME280;32023;44.444;26.006;2024-03-08T05:37:27;100990.03;;;5.02;nan
46291;BME280;32023;44.444;26.006;2024-03-08T05:39:59;100988.16;;;5.02;nan
46291;BME280;32023;44.444;26.006;2024-03-08T05:42:32;100991.06;;;5.01;nan
46291;BME280;32023;44.444;26.006;2024-03-08T05:45:10;100986.00;;;4.91;nan
46291;BME280;32023;44.444;26.006;2024-03-08T05:47:45;101003.66;;;4.89;nan
46291;BME280;32023;44.444;26.006;2024-03-08T05:50:14;101000.72;;;4.90;nan
46291;BME280;32023;44.444;26.006;2024-03-08T05:52:46;101000.31;;;4.93;nan
46291;BME280;32023;44.444;26.006;2024-03-08T05:55:19;101005.75;;;5.00;nan
46291;BME280;32023;44.444;26.006;2024-03-08T05:57:45;101005.75;;;4.93;nan
46291;BME280;32023;44.444;26.006;2024-03-08T06:00:15;101000.72;;;4.90;nan
46291;BME280;32023;44.444;26.006;2024-03-08T06:02:42;101001.94;;;4.88;nan
46291;BME280;32023;44.444;26.006;2024-03-08T06:05:18;101016.66;;;4.87;nan
46291;BME280;32023;44.444;26.006;2024-03-08T06:07:55;101005.34;;;4.90;nan
46291;BME280;32023;44.444;26.006;2024-03-08T06:10:31;101007.22;;;4.96;nan
46291;BME280;32023;44.444;26.006;2024-03-08T06:12:58;101001.94;;;4.88;nan
46291;BME280;32023;44.444;26.006;2024-03-08T06:15:28;101009.09;;;4.89;nan
46291;BME280;32023;44.444;26.006;2024-03-08T06:17:55;101011.03;;;4.95;nan
46291;BME280;32023;44.444;26.006;2024-03-08T06:20:27;101017.31;;;5.08;nan
46291;BME280;32023;44.444;26.006;2024-03-08T06:22:59;101023.81;;;5.14;nan
46291;BME280;32023;44.444;26.006;2024-03-08T06:25:27;101018.81;;;5.17;nan
46291;BME280;32023;44.444;26.006;2024-03-08T06:28:09;101018.81;;;5.30;nan
46291;BME280;32023;44.444;26.006;2024-03-08T06:30:36;101027.00;;;5.37;nan
46291;BME280;32023;44.444;26.006;2024-03-08T06:33:09;101025.53;;;5.41;nan
46291;BME280;32023;44.444;26.006;2024-03-08T06:35:58;101021.97;;;5.47;nan
46291;BME280;32023;44.444;26.006;2024-03-08T06:38:29;101023.00;;;5.53;nan
46291;BME280;32023;44.444;26.006;2024-03-08T06:41:06;101023.22;;;5.58;nan
46291;BME280;32023;44.444;26.006;2024-03-08T06:43:32;101029.09;;;5.61;nan
46291;BME280;32023;44.444;26.006;2024-03-08T06:46:04;101032.66;;;5.68;nan
46291;BME280;32023;44.444;26.006;2024-03-08T06:48:41;101046.75;;;5.72;nan
46291;BME280;32023;44.444;26.006;2024-03-08T06:51:09;101037.31;;;5.88;nan
46291;BME280;32023;44.444;26.006;2024-03-08T06:53:38;101034.13;;;5.97;nan
46291;BME280;32023;44.444;26.006;2024-03-08T06:56:21;101037.69;;;6.04;nan
46291;BME280;32023;44.444;26.006;2024-03-08T06:59:00;101029.69;;;6.09;nan
46291;BME280;32023;44.444;26.006;2024-03-08T07:01:43;101032.59;;;6.21;nan
46291;BME280;32023;44.444;26.006;2024-03-08T07:04:27;101038.47;;;6.24;nan
46291;BME280;32023;44.444;26.006;2024-03-08T07:07:27;101043.69;;;6.39;nan
46291;BME280;32023;44.444;26.006;2024-03-08T07:10:10;101040.72;;;6.47;nan
46291;BME280;32023;44.444;26.006;2024-03-08T07:16:42;101037.81;;;6.36;nan
46291;BME280;32023;44.444;26.006;2024-03-08T07:19:20;101045.97;;;6.42;nan
46291;BME280;32023;44.444;26.006;2024-03-08T07:21:47;101046.81;;;6.43;nan
46291;BME280;32023;44.444;26.006;2024-03-08T07:24:21;101040.94;;;6.39;nan
46291;BME280;32023;44.444;26.006;2024-03-08T07:27:05;101041.13;;;6.51;nan
46291;BME280;32023;44.444;26.006;2024-03-08T07:29:35;101047.19;;;6.59;nan
46291;BME280;32023;44.444;26.006;2024-03-08T07:32:16;101050.94;;;6.71;nan
46291;BME280;32023;44.444;26.006;2024-03-08T07:34:59;101040.78;;;6.78;nan
46291;BME280;32023;44.444;26.006;2024-03-08T07:37:39;101046.44;;;6.84;nan
46291;BME280;32023;44.444;26.006;2024-03-08T07:40:09;101051.84;;;6.97;nan
46291;BME280;32023;44.444;26.006;2024-03-08T07:42:42;101051.63;;;6.98;nan
46291;BME280;32023;44.444;26.006;2024-03-08T07:45:31;101050.78;;;6.98;nan
46291;BME280;32023;44.444;26.006;2024-03-08T07:55:02;101041.91;;;7.34;nan
46291;BME280;32023;44.444;26.006;2024-03-08T07:58:18;101042.94;;;7.39;nan
46291;BME280;32023;44.444;26.006;2024-03-08T08:01:15;101051.03;;;7.28;nan
46291;BME280;32023;44.444;26.006;2024-03-08T08:04:03;101053.63;;;7.16;nan
46291;BME280;32023;44.444;26.006;2024-03-08T08:06:37;101048.75;;;7.18;nan
46291;BME280;32023;44.444;26.006;2024-03-08T08:09:14;101051.88;;;7.28;nan
46291;BME280;32023;44.444;26.006;2024-03-08T08:11:57;101053.25;;;7.37;nan
46291;BME280;32023;44.444;26.006;2024-03-08T08:14:36;101054.09;;;7.38;nan
46291;BME280;32023;44.444;26.006;2024-03-08T08:17:08;101049.53;;;7.32;nan
46291;BME280;32023;44.444;26.006;2024-03-08T08:20:10;101045.81;;;7.19;nan
46291;BME280;32023;44.444;26.006;2024-03-08T08:22:46;101052.25;;;7.00;nan
46291;BME280;32023;44.444;26.006;2024-03-08T08:25:57;101056.72;;;6.95;nan
46291;BME280;32023;44.444;26.006;2024-03-08T08:28:26;101053.13;;;6.94;nan
46291;BME280;32023;44.444;26.006;2024-03-08T08:31:39;101053.69;;;7.03;nan
46291;BME280;32023;44.444;26.006;2024-03-08T08:34:18;101049.44;;;7.13;nan
46291;BME280;32023;44.444;26.006;2024-03-08T08:37:05;101049.84;;;7.17;nan
46291;BME280;32023;44.444;26.006;2024-03-08T08:39:55;101047.13;;;7.10;nan
46291;BME280;32023;44.444;26.006;2024-03-08T08:48:43;101038.94;;;7.60;nan
46291;BME280;32023;44.444;26.006;2024-03-08T08:54:49;101043.44;;;7.54;nan
46291;BME280;32023;44.444;26.006;2024-03-08T09:00:53;101042.19;;;7.75;nan
46291;BME280;32023;44.444;26.006;2024-03-08T09:03:52;101045.03;;;7.87;nan
46291;BME280;32023;44.444;26.006;2024-03-08T09:06:59;101039.47;;;7.93;nan
46291;BME280;32023;44.444;26.006;2024-03-08T09:09:51;101040.66;;;8.04;nan
46291;BME280;32023;44.444;26.006;2024-03-08T09:16:06;101039.75;;;8.28;nan
46291;BME280;32023;44.444;26.006;2024-03-08T09:19:13;101034.56;;;8.20;nan
46291;BME280;32023;44.444;26.006;2024-03-08T09:22:06;101042.94;;;8.07;nan
46291;BME280;32023;44.444;26.006;2024-03-08T09:24:45;101048.13;;;7.97;nan
46291;BME280;32023;44.444;26.006;2024-03-08T09:27:46;101044.16;;;7.93;nan
46291;BME280;32023;44.444;26.006;2024-03-08T09:30:22;101042.16;;;7.82;nan
46291;BME280;32023;44.444;26.006;2024-03-08T09:33:07;101041.53;;;7.55;nan
46291;BME280;32023;44.444;26.006;2024-03-08T09:39:23;101039.78;;;7.36;nan
46291;BME280;32023;44.444;26.006;2024-03-08T09:42:03;101052.19;;;7.38;nan
46291;BME280;32023;44.444;26.006;2024-03-08T09:44:52;101047.97;;;7.42;nan
46291;BME280;32023;44.444;26.006;2024-03-08T09:47:40;101043.66;;;7.53;nan
46291;BME280;32023;44.444;26.006;2024-03-08T09:51:05;101056.25;;;7.60;nan
46291;BME280;32023;44.444;26.006;2024-03-08T09:53:49;101044.53;;;7.71;nan
46291;BME280;32023;44.444;26.006;2024-03-08T09:56:37;101053.41;;;7.73;nan
46291;BME280;32023;44.444;26.006;2024-03-08T09:59:26;101042.72;;;7.65;nan
46291;BME280;32023;44.444;26.006;2024-03-08T10:02:04;101056.13;;;7.73;nan
46291;BME280;32023;44.444;26.006;2024-03-08T10:05:01;101058.25;;;7.71;nan
46291;BME280;32023;44.444;26.006;2024-03-08T10:07:54;101063.59;;;7.66;nan
46291;BME280;32023;44.444;26.006;2024-03-08T10:10:48;101060.84;;;7.66;nan
46291;BME280;32023;44.444;26.006;2024-03-08T10:13:26;101067.31;;;7.72;nan
46291;BME280;32023;44.444;26.006;2024-03-08T10:16:40;101056.28;;;7.79;nan
46291;BME280;32023;44.444;26.006;2024-03-08T10:19:15;101054.03;;;7.94;nan
46291;BME280;32023;44.444;26.006;2024-03-08T10:22:18;101052.31;;;7.74;nan
46291;BME280;32023;44.444;26.006;2024-03-08T10:27:45;101056.75;;;7.75;nan
46291;BME280;32023;44.444;26.006;2024-03-08T10:30:15;101055.53;;;7.90;nan
46291;BME280;32023;44.444;26.006;2024-03-08T10:33:09;101049.56;;;7.99;nan
46291;BME280;32023;44.444;26.006;2024-03-08T10:35:39;101050.34;;;8.06;nan
46291;BME280;32023;44.444;26.006;2024-03-08T10:38:46;101054.97;;;8.06;nan
46291;BME280;32023;44.444;26.006;2024-03-08T10:41:48;101055.59;;;8.08;nan
46291;BME280;32023;44.444;26.006;2024-03-08T10:47:00;101051.09;;;8.13;nan
46291;BME280;32023;44.444;26.006;2024-03-08T10:52:43;101045.22;;;8.10;nan
46291;BME280;32023;44.444;26.006;2024-03-08T10:55:25;101032.56;;;8.09;nan
46291;BME280;32023;44.444;26.006;2024-03-08T10:58:03;101032.44;;;8.22;nan
46291;BME280;32023;44.444;26.006;2024-03-08T11:00:44;101028.59;;;8.30;nan
46291;BME280;32023;44.444;26.006;2024-03-08T11:10:24;101021.78;;;8.68;nan
46291;BME280;32023;44.444;26.006;2024-03-08T11:21:37;101013.59;;;9.10;nan
46291;BME280;32023;44.444;26.006;2024-03-08T11:57:05;101002.19;;;9.36;nan
46291;BME280;32023;44.444;26.006;2024-03-08T12:07:11;100982.59;;;9.67;nan
46291;BME280;32023;44.444;26.006;2024-03-08T12:33:25;100977.22;;;9.61;nan
46291;BME280;32023;44.444;26.006;2024-03-08T12:36:02;100972.56;;;9.73;nan
46291;BME280;32023;44.444;26.006;2024-03-08T12:38:56;100974.34;;;9.79;nan
46291;BME280;32023;44.444;26.006;2024-03-08T12:41:44;100975.41;;;9.90;nan
46291;BME280;32023;44.444;26.006;2024-03-08T12:44:21;100965.25;;;9.90;nan
46291;BME280;32023;44.444;26.006;2024-03-08T12:47:13;100962.63;;;9.95;nan
46291;BME280;32023;44.444;26.006;2024-03-08T12:50:38;100966.78;;;9.98;nan
46291;BME280;32023;44.444;26.006;2024-03-08T12:53:42;100957.69;;;9.97;nan
46291;BME280;32023;44.444;26.006;2024-03-08T13:00:08;100959.72;;;10.13;nan
46291;BME280;32023;44.444;26.006;2024-03-08T13:03:03;100958.66;;;10.03;nan
46291;BME280;32023;44.444;26.006;2024-03-08T13:05:49;100949.69;;;10.07;nan
46291;BME280;32023;44.444;26.006;2024-03-08T13:08:28;100954.22;;;10.13;nan
46291;BME280;32023;44.444;26.006;2024-03-08T13:11:27;100955.44;;;10.18;nan
46291;BME280;32023;44.444;26.006;2024-03-08T13:17:34;100947.78;;;10.08;nan
46291;BME280;32023;44.444;26.006;2024-03-08T13:20:33;100942.53;;;9.95;nan
46291;BME280;32023;44.444;26.006;2024-03-08T13:26:43;100950.22;;;9.70;nan
46291;BME280;32023;44.444;26.006;2024-03-08T13:29:13;100943.03;;;9.68;nan
46291;BME280;32023;44.444;26.006;2024-03-08T13:31:59;100946.25;;;9.65;nan
46291;BME280;32023;44.444;26.006;2024-03-08T13:38:21;100936.19;;;9.59;nan
46291;BME280;32023;44.444;26.006;2024-03-08T13:41:06;100949.13;;;9.71;nan
46291;BME280;32023;44.444;26.006;2024-03-08T13:44:18;100954.25;;;9.79;nan
46291;BME280;32023;44.444;26.006;2024-03-08T13:46:56;100949.22;;;9.87;nan
46291;BME280;32023;44.444;26.006;2024-03-08T13:49:26;100946.13;;;9.95;nan
46291;BME280;32023;44.444;26.006;2024-03-08T13:52:02;100946.47;;;9.99;nan
46291;BME280;32023;44.444;26.006;2024-03-08T13:54:40;100948.25;;;9.93;nan
46291;BME280;32023;44.444;26.006;2024-03-08T14:00:19;100937.38;;;9.87;nan
46291;BME280;32023;44.444;26.006;2024-03-08T14:03:07;100944.91;;;9.91;nan
46291;BME280;32023;44.444;26.006;2024-03-08T14:09:34;100942.19;;;9.80;nan
46291;BME280;32023;44.444;26.006;2024-03-08T14:15:27;100936.19;;;9.83;nan
46291;BME280;32023;44.444;26.006;2024-03-08T14:18:07;100941.69;;;9.83;nan
46291;BME280;32023;44.444;26.006;2024-03-08T14:20:46;100936.19;;;9.83;nan
46291;BME280;32023;44.444;26.006;2024-03-08T14:23:35;100940.63;;;9.84;nan
46291;BME280;32023;44.444;26.006;2024-03-08T14:26:11;100936.53;;;9.86;nan
46291;BME280;32023;44.444;26.006;2024-03-08T14:29:12;100935.72;;;9.86;nan
46291;BME280;32023;44.444;26.006;2024-03-08T14:31:49;100925.81;;;9.85;nan
46291;BME280;32023;44.444;26.006;2024-03-08T14:34:26;100935.72;;;9.86;nan
46291;BME280;32023;44.444;26.006;2024-03-08T14:37:08;100940.63;;;9.84;nan
46291;BME280;32023;44.444;26.006;2024-03-08T14:39:40;100934.53;;;9.82;nan
46291;BME280;32023;44.444;26.006;2024-03-08T14:42:30;100938.38;;;9.81;nan
46291;BME280;32023;44.444;26.006;2024-03-08T14:45:04;100935.84;;;9.79;nan
46291;BME280;32023;44.444;26.006;2024-03-08T14:47:52;100938.59;;;9.67;nan
46291;BME280;32023;44.444;26.006;2024-03-08T14:50:36;100939.22;;;9.58;nan
46291;BME280;32023;44.444;26.006;2024-03-08T14:53:19;100941.97;;;9.58;nan
46291;BME280;32023;44.444;26.006;2024-03-08T14:56:11;100934.56;;;9.58;nan
46291;BME280;32023;44.444;26.006;2024-03-08T14:59:20;100934.19;;;9.55;nan
46291;BME280;32023;44.444;26.006;2024-03-08T15:02:18;100941.97;;;9.46;nan
46291;BME280;32023;44.444;26.006;2024-03-08T15:05:05;100934.66;;;9.29;nan
46291;BME280;32023;44.444;26.006;2024-03-08T15:07:42;100930.81;;;9.30;nan
46291;BME280;32023;44.444;26.006;2024-03-08T15:10:11;100933.34;;;9.31;nan
46291;BME280;32023;44.444;26.006;2024-03-08T15:12:45;100930.09;;;9.23;nan
46291;BME280;32023;44.444;26.006;2024-03-08T15:15:37;100929.63;;;9.26;nan
46291;BME280;32023;44.444;26.006;2024-03-08T15:18:11;100927.47;;;9.28;nan
46291;BME280;32023;44.444;26.006;2024-03-08T15:20:49;100934.03;;;9.27;nan
46291;BME280;32023;44.444;26.006;2024-03-08T15:23:19;100941.09;;;9.23;nan
46291;BME280;32023;44.444;26.006;2024-03-08T15:25:56;100939.13;;;9.00;nan
46291;BME280;32023;44.444;26.006;2024-03-08T15:28:23;100938.63;;;8.80;nan
46291;BME280;32023;44.444;26.006;2024-03-08T15:31:06;100940.81;;;8.59;nan
46291;BME280;32023;44.444;26.006;2024-03-08T15:33:34;100948.53;;;8.51;nan
46291;BME280;32023;44.444;26.006;2024-03-08T15:36:22;100950.47;;;8.32;nan
46291;BME280;32023;44.444;26.006;2024-03-08T15:38:57;100944.03;;;8.20;nan
46291;BME280;32023;44.444;26.006;2024-03-08T15:41:26;100949.59;;;8.13;nan
46291;BME280;32023;44.444;26.006;2024-03-08T15:44:13;100952.91;;;8.04;nan
46291;BME280;32023;44.444;26.006;2024-03-08T15:46:49;100956.78;;;7.96;nan
46291;BME280;32023;44.444;26.006;2024-03-08T15:49:21;100958.31;;;7.92;nan
46291;BME280;32023;44.444;26.006;2024-03-08T15:51:51;100960.97;;;7.81;nan
46291;BME280;32023;44.444;26.006;2024-03-08T15:54:22;100965.81;;;7.79;nan
46291;BME280;32023;44.444;26.006;2024-03-08T15:56:58;100965.06;;;7.71;nan
46291;BME280;32023;44.444;26.006;2024-03-08T15:59:34;100966.44;;;7.62;nan
46291;BME280;32023;44.444;26.006;2024-03-08T16:05:37;100969.22;;;7.31;nan
46291;BME280;32023;44.444;26.006;2024-03-08T16:12:07;100961.91;;;7.25;nan
46291;BME280;32023;44.444;26.006;2024-03-08T16:15:04;100961.75;;;7.20;nan
46291;BME280;32023;44.444;26.006;2024-03-08T16:17:39;100960.06;;;7.19;nan
46291;BME280;32023;44.444;26.006;2024-03-08T16:20:57;100959.47;;;7.17;nan
46291;BME280;32023;44.444;26.006;2024-03-08T16:23:56;100958.44;;;7.11;nan
46291;BME280;32023;44.444;26.006;2024-03-08T16:30:43;100965.66;;;7.06;nan
46291;BME280;32023;44.444;26.006;2024-03-08T16:33:40;100972.19;;;7.05;nan
46291;BME280;32023;44.444;26.006;2024-03-08T16:43:11;100984.44;;;7.02;nan
46291;BME280;32023;44.444;26.006;2024-03-08T16:45:50;100974.53;;;7.01;nan
46291;BME280;32023;44.444;26.006;2024-03-08T16:48:23;100980.84;;;7.02;nan
46291;BME280;32023;44.444;26.006;2024-03-08T16:50:53;100977.47;;;7.00;nan